РПИ Ростов-на-Дону

8 октября 2002 года в связи с концептуальными решениями реорганизации ЕС ОрВД и необходимостью оптимизации количества дочерних предприятий на основании распоряжения Министерства имущественных отношений Российской Федерации впервые на Юге России путем слияния ГУДП СКЦ АУВД «Стрела», ГУДП «Волгоградаэронавигация» и ГУДП «Кавказаэронавигация» было создано Государственное унитарное дочернее предприятие «Аэронавигация Юга».

ОСНОВНЫЕ ФУНКЦИИ ФИЛИАЛА: организация воздушного движения в границах ответственности; планирование и координирование использования воздушного пространства; информационное обеспечение пользователей воздушного пространства, предоставление средств радиотехнического обеспечения полётов, авиационной электросвязи; организация и осуществление технической эксплуатации и обслуживания объектов и средств радиотехнического обеспечения полётов, авиационной электросвязи и средств авиационной фиксированной спутниковой связи; контроль качества аэронавигационного обслуживания.

Обслуживаемая филиалом площадь, в воздушном пространстве которой решаются задачи ИВП и УВД, составляет 729 000 кв. км.

На территории Ростовской зоны ЕС ОрВД располагаются:

  • 104 воздушные трассы протяженностью 36504 км. (международных – 82, внутренних – 22);
  • 15 аэродромов гражданской авиации;
  • 37 аэродромов государственной авиации;
  • 3 аэродрома экспериментальной авиации;
  • 9 аэродромов ДОСААФ;
  • 151 посадочная площадка;
  • 177 градобойных  и 5 противолавинных позиций;
  • 47 авиационных и общевойсковых полигонов.

Филиал осуществляет аэронавигационное обслуживание в воздушном пространстве в границах Ростовской, Волгоградской, Астраханской областей, Краснодарского и Ставропольского краев, республик Адыгеи, Калмыкии, Ингушетии, Дагестана, Чеченской, Северной Осетии (Алания), Карачаево-Черкесской и Кабардино-Балкарской, а также над акваториями Азовского, Каспийского и Черного морей.

Руководитель РПИ

Grigori Badalov*

Инструкторы РПИ
Grigori Badalov (Instructor)
Valeriy Polostyanoy (Instructor)
Входит в состав
ЗЦ Ростов-на-Дону

Диспетчеры РПИ

Диспетчер Рейтинг Допуски *
Artem Smorchkov Controller URRV_CTR
Grigori Badalov Instructor URRV_CTR
Ivan Chernov Senior Controller URRV_CTR
Valeriy Polostyanoy Instructor URRV_CTR
Alikhan Aidarbek Student URSS_GND
Andrey Tatarov Student URSS_GND
Anton Nikolaev Student 2 URSS_TWR, URSS_R_APP*
Daniel Ryabkov Student 2 URSS_TWR*
Denis Zhuchkov Student 2 URSS_R_APP*
Gregory Adamov Student 2 URSS_TWR
Kirill Valigun Student 2 URSS_GND
Maksim Kholodilov Student SIP_GND
Maxim Baglikov Student SIP_GND
Renat Yengulatov Student URSS_GND
Sergey Vologzhin Student URSS_GND, URSS_TWR*
Tigran Areian Senior Student URSS_APP

Аэропорты РПИ

ICAO Город Название Погода
URFF Симферополь Симферополь URFF 161930Z 20002MPS 180V250 9999 OVC046 M00/M05 Q1022 R01/090095 NOSIG
URSS Сочи Сочи URSS 161930Z 05003MPS 9999 FEW040CB M02/M03 Q1020 R02/010070 R06/010070 NOSIG RMK R06/36002MPS MT OBSC QFE764
URRY
URKA Анапа Анапа URKA 161930Z 30003MPS 9999 BKN065CB 01/M01 Q1021 R04/010070 TEMPO 3000 -SHSNRA SCT011 BKN020CB RMK QFE762/1016
URWA Астрахань Астрахань URWA 161930Z 26005MPS 9999 BKN030 M01/M04 Q1015 R27/350055 NOSIG RMK QFE763/1018
URMO Владикавказ Беслан URMO 161930Z AUTO 12002MPS 6000 -SN ///022/// M03/M04 Q1018 RMK QFE720/0960
URWW Волгоград Волгоград URWW 161930Z 27005MPS 9999 BKN023 M06/M08 Q1013 R24/850340 TEMPO 0200 FZFG OVC002
URKG Геленджик Геленджик
URMG Грозный Грозный URMG 161930Z 29003MPS 9999 SCT056 BKN075 M02/M04 Q1020 R26/090070 NOSIG RMK QFE750/1000
URKK Краснодар Пашковский URKK 161930Z 24004MPS 9999 -SHSN BKN058CB M00/M02 Q1021 R23L/290060 NOSIG RMK QFE762
URML Махачкала Уйташ URML 161930Z 31005MPS 9999 FEW074 01/M07 Q1019 R32/01//70 NOSIG RMK QFE764/1019
URMM Минеральные Воды Минеральные Воды URMM 161930Z 26006MPS 9999 OVC058 M02/M06 Q1019 R30/190160 NOSIG RMK QFE736/0981
URMS Назрань Магас
URMN Нальчик Нальчик URMN 161900Z 18003MPS 9999 OVC030CB M02/M07 Q1017 R24/////// NOSIG RMK QFE726
URRP Ростов-на-Дону Платов URRP 161930Z 30004MPS 9999 FEW/// M01/M02 Q1017 R23/CLRD70 NOSIG RMK QFE755/1007
URRR Ростов-на-Дону Ростов-на-Дону
URMT Ставрополь Ставрополь URMT 161930Z 28005MPS 9999 BKN047 M04/M07 Q1017 R25/850337 NOSIG RMK QFE724
URWI Элиста Элиста URWI 161930Z AUTO 28007MPS 9999 // ///061/// M03/M05 Q1016